sensor_id;sensor_type;location;lat;lon;timestamp;temperature;humidity
25112;DHT22;13092;51.996;4.458;2022-09-24T00:02:02;15.70;99.90
25112;DHT22;13092;51.996;4.458;2022-09-24T00:04:30;15.70;99.90
25112;DHT22;13092;51.996;4.458;2022-09-24T00:07:00;15.70;99.90
25112;DHT22;13092;51.996;4.458;2022-09-24T00:09:28;15.70;99.90
25112;DHT22;13092;51.996;4.458;2022-09-24T00:11:56;15.70;99.90
25112;DHT22;13092;51.996;4.458;2022-09-24T00:14:26;15.80;99.90
25112;DHT22;13092;51.996;4.458;2022-09-24T00:16:55;15.80;99.90
25112;DHT22;13092;51.996;4.458;2022-09-24T00:19:23;15.90;99.90
25112;DHT22;13092;51.996;4.458;2022-09-24T00:21:51;16.00;99.90
25112;DHT22;13092;51.996;4.458;2022-09-24T00:24:21;16.00;99.90
25112;DHT22;13092;51.996;4.458;2022-09-24T00:27:06;16.00;99.90
25112;DHT22;13092;51.996;4.458;2022-09-24T00:29:34;16.00;99.90
25112;DHT22;13092;51.996;4.458;2022-09-24T00:32:04;16.00;99.90
25112;DHT22;13092;51.996;4.458;2022-09-24T00:34:32;16.00;99.90
25112;DHT22;13092;51.996;4.458;2022-09-24T00:37:00;16.00;99.90
25112;DHT22;13092;51.996;4.458;2022-09-24T00:39:29;16.00;99.90
25112;DHT22;13092;51.996;4.458;2022-09-24T00:41:58;16.00;99.90
25112;DHT22;13092;51.996;4.458;2022-09-24T00:44:48;15.90;99.90
25112;DHT22;13092;51.996;4.458;2022-09-24T00:47:31;15.90;99.90
25112;DHT22;13092;51.996;4.458;2022-09-24T00:50:14;15.80;99.90
25112;DHT22;13092;51.996;4.458;2022-09-24T00:52:46;15.90;99.90
25112;DHT22;13092;51.996;4.458;2022-09-24T00:55:17;15.90;99.90
25112;DHT22;13092;51.996;4.458;2022-09-24T00:57:48;15.90;99.90
25112;DHT22;13092;51.996;4.458;2022-09-24T01:00:17;15.90;99.90
25112;DHT22;13092;51.996;4.458;2022-09-24T01:02:46;16.00;99.90
25112;DHT22;13092;51.996;4.458;2022-09-24T01:05:17;16.10;99.90
25112;DHT22;13092;51.996;4.458;2022-09-24T01:07:45;16.00;99.90
25112;DHT22;13092;51.996;4.458;2022-09-24T01:10:18;16.00;99.90
25112;DHT22;13092;51.996;4.458;2022-09-24T01:13:11;16.00;99.90
25112;DHT22;13092;51.996;4.458;2022-09-24T01:15:46;16.10;99.90
25112;DHT22;13092;51.996;4.458;2022-09-24T01:18:19;16.10;99.90
25112;DHT22;13092;51.996;4.458;2022-09-24T01:21:02;16.10;99.90
25112;DHT22;13092;51.996;4.458;2022-09-24T01:23:48;16.20;99.90
25112;DHT22;13092;51.996;4.458;2022-09-24T01:26:38;16.10;99.90
25112;DHT22;13092;51.996;4.458;2022-09-24T01:29:40;16.10;99.90
25112;DHT22;13092;51.996;4.458;2022-09-24T01:32:14;16.00;99.90
25112;DHT22;13092;51.996;4.458;2022-09-24T01:34:48;16.00;99.90
25112;DHT22;13092;51.996;4.458;2022-09-24T01:37:20;15.90;99.90
25112;DHT22;13092;51.996;4.458;2022-09-24T01:39:51;16.00;99.90
25112;DHT22;13092;51.996;4.458;2022-09-24T01:42:22;15.90;99.90
25112;DHT22;13092;51.996;4.458;2022-09-24T01:44:54;15.90;99.90
25112;DHT22;13092;51.996;4.458;2022-09-24T01:47:31;15.80;99.90
25112;DHT22;13092;51.996;4.458;2022-09-24T01:50:01;15.90;99.90
25112;DHT22;13092;51.996;4.458;2022-09-24T01:52:34;15.90;99.90
25112;DHT22;13092;51.996;4.458;2022-09-24T01:55:07;15.80;99.90
25112;DHT22;13092;51.996;4.458;2022-09-24T01:57:40;15.80;99.90
25112;DHT22;13092;51.996;4.458;2022-09-24T02:00:12;15.80;99.90
25112;DHT22;13092;51.996;4.458;2022-09-24T02:02:44;15.80;99.90
25112;DHT22;13092;51.996;4.458;2022-09-24T02:05:17;15.80;99.90
25112;DHT22;13092;51.996;4.458;2022-09-24T02:07:54;15.70;99.90
25112;DHT22;13092;51.996;4.458;2022-09-24T02:10:27;15.80;99.90
25112;DHT22;13092;51.996;4.458;2022-09-24T02:12:59;15.80;99.90
25112;DHT22;13092;51.996;4.458;2022-09-24T02:15:32;15.80;99.90
25112;DHT22;13092;51.996;4.458;2022-09-24T02:18:04;15.80;99.90
25112;DHT22;13092;51.996;4.458;2022-09-24T02:20:34;15.80;99.90
25112;DHT22;13092;51.996;4.458;2022-09-24T02:23:04;15.90;99.90
25112;DHT22;13092;51.996;4.458;2022-09-24T02:25:37;15.90;99.90
25112;DHT22;13092;51.996;4.458;2022-09-24T02:28:06;15.90;99.90
25112;DHT22;13092;51.996;4.458;2022-09-24T02:30:39;16.00;99.90
25112;DHT22;13092;51.996;4.458;2022-09-24T02:33:10;16.00;99.90
25112;DHT22;13092;51.996;4.458;2022-09-24T02:35:53;15.80;99.90
25112;DHT22;13092;51.996;4.458;2022-09-24T02:38:22;15.80;99.90
25112;DHT22;13092;51.996;4.458;2022-09-24T02:40:50;15.80;99.90
25112;DHT22;13092;51.996;4.458;2022-09-24T02:43:19;15.80;99.90
25112;DHT22;13092;51.996;4.458;2022-09-24T02:45:48;15.90;99.90
25112;DHT22;13092;51.996;4.458;2022-09-24T02:48:16;15.80;99.90
25112;DHT22;13092;51.996;4.458;2022-09-24T02:50:45;15.90;99.90
25112;DHT22;13092;51.996;4.458;2022-09-24T02:53:13;15.90;99.90
25112;DHT22;13092;51.996;4.458;2022-09-24T02:55:41;15.90;99.90
25112;DHT22;13092;51.996;4.458;2022-09-24T02:58:09;15.80;99.90
25112;DHT22;13092;51.996;4.458;2022-09-24T03:00:37;15.90;99.90
25112;DHT22;13092;51.996;4.458;2022-09-24T03:03:07;16.00;99.90
25112;DHT22;13092;51.996;4.458;2022-09-24T03:05:35;15.90;99.90
25112;DHT22;13092;51.996;4.458;2022-09-24T03:08:03;15.90;99.90
25112;DHT22;13092;51.996;4.458;2022-09-24T03:10:33;15.90;99.90
25112;DHT22;13092;51.996;4.458;2022-09-24T03:13:01;15.90;99.90
25112;DHT22;13092;51.996;4.458;2022-09-24T03:15:29;15.90;99.90
25112;DHT22;13092;51.996;4.458;2022-09-24T03:17:58;15.90;99.90
25112;DHT22;13092;51.996;4.458;2022-09-24T03:20:27;16.00;99.90
25112;DHT22;13092;51.996;4.458;2022-09-24T03:22:55;15.90;99.90
25112;DHT22;13092;51.996;4.458;2022-09-24T03:25:25;15.90;99.90
25112;DHT22;13092;51.996;4.458;2022-09-24T03:27:53;15.90;99.90
25112;DHT22;13092;51.996;4.458;2022-09-24T03:30:21;15.90;99.90
25112;DHT22;13092;51.996;4.458;2022-09-24T03:33:07;15.90;99.90
25112;DHT22;13092;51.996;4.458;2022-09-24T03:35:36;16.00;99.90
25112;DHT22;13092;51.996;4.458;2022-09-24T03:38:04;16.00;99.90
25112;DHT22;13092;51.996;4.458;2022-09-24T03:40:32;16.00;99.90
25112;DHT22;13092;51.996;4.458;2022-09-24T03:43:00;16.00;99.90
25112;DHT22;13092;51.996;4.458;2022-09-24T03:45:28;16.00;99.90
25112;DHT22;13092;51.996;4.458;2022-09-24T03:47:57;16.00;99.90
25112;DHT22;13092;51.996;4.458;2022-09-24T03:50:26;16.00;99.90
25112;DHT22;13092;51.996;4.458;2022-09-24T03:52:55;15.90;99.90
25112;DHT22;13092;51.996;4.458;2022-09-24T03:55:24;15.90;99.90
25112;DHT22;13092;51.996;4.458;2022-09-24T03:57:52;16.10;99.90
25112;DHT22;13092;51.996;4.458;2022-09-24T04:00:20;16.10;99.90
25112;DHT22;13092;51.996;4.458;2022-09-24T04:02:49;16.10;99.90
25112;DHT22;13092;51.996;4.458;2022-09-24T04:05:17;16.10;99.90
25112;DHT22;13092;51.996;4.458;2022-09-24T04:07:46;16.20;99.90
25112;DHT22;13092;51.996;4.458;2022-09-24T04:10:16;16.20;99.90
25112;DHT22;13092;51.996;4.458;2022-09-24T04:12:44;16.20;99.90
25112;DHT22;13092;51.996;4.458;2022-09-24T04:15:12;16.20;99.90
25112;DHT22;13092;51.996;4.458;2022-09-24T04:17:41;16.20;99.90
25112;DHT22;13092;51.996;4.458;2022-09-24T04:20:09;16.20;99.90
25112;DHT22;13092;51.996;4.458;2022-09-24T04:22:38;16.20;99.90
25112;DHT22;13092;51.996;4.458;2022-09-24T04:25:07;16.20;99.90
25112;DHT22;13092;51.996;4.458;2022-09-24T04:27:41;16.20;99.90
25112;DHT22;13092;51.996;4.458;2022-09-24T04:30:10;16.30;99.90
25112;DHT22;13092;51.996;4.458;2022-09-24T04:32:39;16.20;99.90
25112;DHT22;13092;51.996;4.458;2022-09-24T04:35:09;16.10;99.90
25112;DHT22;13092;51.996;4.458;2022-09-24T04:37:37;16.10;99.90
25112;DHT22;13092;51.996;4.458;2022-09-24T04:40:06;16.20;99.90
25112;DHT22;13092;51.996;4.458;2022-09-24T04:42:38;16.10;99.90
25112;DHT22;13092;51.996;4.458;2022-09-24T04:45:10;16.00;99.90
25112;DHT22;13092;51.996;4.458;2022-09-24T04:47:38;16.00;99.90
25112;DHT22;13092;51.996;4.458;2022-09-24T04:50:08;15.90;99.90
25112;DHT22;13092;51.996;4.458;2022-09-24T04:52:37;15.80;99.90
25112;DHT22;13092;51.996;4.458;2022-09-24T04:55:06;15.80;99.90
25112;DHT22;13092;51.996;4.458;2022-09-24T04:57:34;15.70;99.90
25112;DHT22;13092;51.996;4.458;2022-09-24T05:00:04;15.70;99.90
25112;DHT22;13092;51.996;4.458;2022-09-24T05:02:34;15.70;99.90
25112;DHT22;13092;51.996;4.458;2022-09-24T05:05:02;15.50;99.90
25112;DHT22;13092;51.996;4.458;2022-09-24T05:07:30;15.70;99.90
25112;DHT22;13092;51.996;4.458;2022-09-24T05:09:58;15.60;99.90
25112;DHT22;13092;51.996;4.458;2022-09-24T05:12:26;15.60;99.90
25112;DHT22;13092;51.996;4.458;2022-09-24T05:14:55;15.60;99.90
25112;DHT22;13092;51.996;4.458;2022-09-24T05:17:23;15.70;99.90
25112;DHT22;13092;51.996;4.458;2022-09-24T05:20:02;15.60;99.90
25112;DHT22;13092;51.996;4.458;2022-09-24T05:22:30;15.60;99.90
25112;DHT22;13092;51.996;4.458;2022-09-24T05:24:59;15.60;99.90
25112;DHT22;13092;51.996;4.458;2022-09-24T05:27:27;15.50;99.90
25112;DHT22;13092;51.996;4.458;2022-09-24T05:29:54;15.50;99.90
25112;DHT22;13092;51.996;4.458;2022-09-24T05:32:22;15.40;99.90
25112;DHT22;13092;51.996;4.458;2022-09-24T05:34:52;15.30;99.90
25112;DHT22;13092;51.996;4.458;2022-09-24T05:37:20;15.50;99.90
25112;DHT22;13092;51.996;4.458;2022-09-24T05:39:48;15.50;99.90
25112;DHT22;13092;51.996;4.458;2022-09-24T05:42:16;15.30;99.90
25112;DHT22;13092;51.996;4.458;2022-09-24T05:44:45;15.40;99.90
25112;DHT22;13092;51.996;4.458;2022-09-24T05:47:18;15.40;99.90
25112;DHT22;13092;51.996;4.458;2022-09-24T05:49:46;15.40;99.90
25112;DHT22;13092;51.996;4.458;2022-09-24T05:52:16;15.40;99.90
25112;DHT22;13092;51.996;4.458;2022-09-24T05:54:44;15.40;99.90
25112;DHT22;13092;51.996;4.458;2022-09-24T05:57:12;15.40;99.90
25112;DHT22;13092;51.996;4.458;2022-09-24T05:59:41;15.40;99.90
25112;DHT22;13092;51.996;4.458;2022-09-24T06:02:10;15.40;99.90
25112;DHT22;13092;51.996;4.458;2022-09-24T06:04:38;15.40;99.90
25112;DHT22;13092;51.996;4.458;2022-09-24T06:07:06;15.30;99.90
25112;DHT22;13092;51.996;4.458;2022-09-24T06:09:36;15.30;99.90
25112;DHT22;13092;51.996;4.458;2022-09-24T06:12:06;15.30;99.90
25112;DHT22;13092;51.996;4.458;2022-09-24T06:14:36;15.20;99.90
25112;DHT22;13092;51.996;4.458;2022-09-24T06:17:04;15.30;99.90
25112;DHT22;13092;51.996;4.458;2022-09-24T06:19:32;15.30;99.90
25112;DHT22;13092;51.996;4.458;2022-09-24T06:22:01;15.40;99.90
25112;DHT22;13092;51.996;4.458;2022-09-24T06:24:29;15.30;99.90
25112;DHT22;13092;51.996;4.458;2022-09-24T06:26:59;15.30;99.90
25112;DHT22;13092;51.996;4.458;2022-09-24T06:29:27;15.20;99.90
25112;DHT22;13092;51.996;4.458;2022-09-24T06:31:55;15.30;99.90
25112;DHT22;13092;51.996;4.458;2022-09-24T06:34:24;15.30;99.90
25112;DHT22;13092;51.996;4.458;2022-09-24T06:36:52;15.30;99.90
25112;DHT22;13092;51.996;4.458;2022-09-24T06:39:21;15.30;99.90
25112;DHT22;13092;51.996;4.458;2022-09-24T06:41:49;15.30;99.90
25112;DHT22;13092;51.996;4.458;2022-09-24T06:44:20;15.30;99.90
25112;DHT22;13092;51.996;4.458;2022-09-24T06:46:48;15.20;99.90
25112;DHT22;13092;51.996;4.458;2022-09-24T06:49:16;15.30;99.90
25112;DHT22;13092;51.996;4.458;2022-09-24T06:51:45;15.30;99.90
25112;DHT22;13092;51.996;4.458;2022-09-24T06:54:13;15.30;99.90
25112;DHT22;13092;51.996;4.458;2022-09-24T06:56:42;15.40;99.90
25112;DHT22;13092;51.996;4.458;2022-09-24T06:59:10;15.30;99.90
25112;DHT22;13092;51.996;4.458;2022-09-24T07:01:39;15.40;99.90
25112;DHT22;13092;51.996;4.458;2022-09-24T07:04:08;15.40;99.90
25112;DHT22;13092;51.996;4.458;2022-09-24T07:06:36;15.30;99.90
25112;DHT22;13092;51.996;4.458;2022-09-24T07:09:18;15.40;99.90
25112;DHT22;13092;51.996;4.458;2022-09-24T07:11:46;15.40;99.90
25112;DHT22;13092;51.996;4.458;2022-09-24T07:14:15;15.40;99.90
25112;DHT22;13092;51.996;4.458;2022-09-24T07:16:47;15.30;99.90
25112;DHT22;13092;51.996;4.458;2022-09-24T07:19:16;15.30;99.90
25112;DHT22;13092;51.996;4.458;2022-09-24T07:21:46;15.30;99.90
25112;DHT22;13092;51.996;4.458;2022-09-24T07:24:15;15.30;99.90
25112;DHT22;13092;51.996;4.458;2022-09-24T07:26:43;15.20;99.90
25112;DHT22;13092;51.996;4.458;2022-09-24T07:29:14;15.20;99.90
25112;DHT22;13092;51.996;4.458;2022-09-24T07:31:43;15.20;99.90
25112;DHT22;13092;51.996;4.458;2022-09-24T07:34:13;15.20;99.90
25112;DHT22;13092;51.996;4.458;2022-09-24T07:36:41;15.10;99.90
25112;DHT22;13092;51.996;4.458;2022-09-24T07:39:10;15.10;99.90
25112;DHT22;13092;51.996;4.458;2022-09-24T07:41:38;15.10;99.90
25112;DHT22;13092;51.996;4.458;2022-09-24T07:44:08;15.00;99.90
25112;DHT22;13092;51.996;4.458;2022-09-24T07:46:36;15.00;99.90
25112;DHT22;13092;51.996;4.458;2022-09-24T07:49:05;15.00;99.90
25112;DHT22;13092;51.996;4.458;2022-09-24T07:51:35;15.00;99.90
25112;DHT22;13092;51.996;4.458;2022-09-24T07:54:03;14.90;99.90
25112;DHT22;13092;51.996;4.458;2022-09-24T07:56:32;14.80;99.90
25112;DHT22;13092;51.996;4.458;2022-09-24T07:59:01;14.80;99.90
25112;DHT22;13092;51.996;4.458;2022-09-24T08:01:30;14.80;99.90
25112;DHT22;13092;51.996;4.458;2022-09-24T08:03:59;14.90;99.90
25112;DHT22;13092;51.996;4.458;2022-09-24T08:06:28;14.80;99.90
25112;DHT22;13092;51.996;4.458;2022-09-24T08:09:06;14.80;99.90
25112;DHT22;13092;51.996;4.458;2022-09-24T08:11:34;14.80;99.90
25112;DHT22;13092;51.996;4.458;2022-09-24T08:14:03;14.90;99.90
25112;DHT22;13092;51.996;4.458;2022-09-24T08:16:31;14.80;99.90
25112;DHT22;13092;51.996;4.458;2022-09-24T08:19:00;14.90;99.90
25112;DHT22;13092;51.996;4.458;2022-09-24T08:21:28;14.90;99.90
25112;DHT22;13092;51.996;4.458;2022-09-24T08:23:58;14.90;99.90
25112;DHT22;13092;51.996;4.458;2022-09-24T08:26:28;14.90;99.90
25112;DHT22;13092;51.996;4.458;2022-09-24T08:28:56;14.90;99.90
25112;DHT22;13092;51.996;4.458;2022-09-24T08:31:27;15.00;99.90
25112;DHT22;13092;51.996;4.458;2022-09-24T08:33:56;15.00;99.90
25112;DHT22;13092;51.996;4.458;2022-09-24T08:36:25;15.00;99.90
25112;DHT22;13092;51.996;4.458;2022-09-24T08:38:56;15.10;99.90
25112;DHT22;13092;51.996;4.458;2022-09-24T08:41:50;15.10;99.90
25112;DHT22;13092;51.996;4.458;2022-09-24T08:44:28;15.10;99.90
25112;DHT22;13092;51.996;4.458;2022-09-24T08:47:35;15.20;99.90
25112;DHT22;13092;51.996;4.458;2022-09-24T08:50:11;15.30;99.90
25112;DHT22;13092;51.996;4.458;2022-09-24T08:53:05;15.40;99.90
25112;DHT22;13092;51.996;4.458;2022-09-24T08:55:46;15.30;99.90
25112;DHT22;13092;51.996;4.458;2022-09-24T08:58:38;15.40;99.90
25112;DHT22;13092;51.996;4.458;2022-09-24T09:01:23;15.40;99.90
25112;DHT22;13092;51.996;4.458;2022-09-24T09:04:02;15.50;99.90
25112;DHT22;13092;51.996;4.458;2022-09-24T09:06:50;15.60;99.90
25112;DHT22;13092;51.996;4.458;2022-09-24T09:09:23;15.60;99.90
25112;DHT22;13092;51.996;4.458;2022-09-24T09:11:58;15.60;99.90
25112;DHT22;13092;51.996;4.458;2022-09-24T09:14:39;15.70;99.90
25112;DHT22;13092;51.996;4.458;2022-09-24T09:17:16;15.70;99.90
25112;DHT22;13092;51.996;4.458;2022-09-24T09:19:56;15.70;99.90
25112;DHT22;13092;51.996;4.458;2022-09-24T09:22:34;15.80;99.90
25112;DHT22;13092;51.996;4.458;2022-09-24T09:25:20;15.80;99.90
25112;DHT22;13092;51.996;4.458;2022-09-24T09:27:52;15.90;99.90
25112;DHT22;13092;51.996;4.458;2022-09-24T09:30:24;15.90;99.90
25112;DHT22;13092;51.996;4.458;2022-09-24T09:33:04;16.00;99.90
25112;DHT22;13092;51.996;4.458;2022-09-24T09:35:44;15.90;99.90
25112;DHT22;13092;51.996;4.458;2022-09-24T09:38:20;16.10;99.90
25112;DHT22;13092;51.996;4.458;2022-09-24T09:40:58;16.10;99.90
25112;DHT22;13092;51.996;4.458;2022-09-24T09:43:32;16.10;99.90
25112;DHT22;13092;51.996;4.458;2022-09-24T09:46:11;16.10;99.90
25112;DHT22;13092;51.996;4.458;2022-09-24T09:48:44;16.00;99.90
25112;DHT22;13092;51.996;4.458;2022-09-24T09:51:17;16.10;99.90
25112;DHT22;13092;51.996;4.458;2022-09-24T09:53:56;16.10;99.90
25112;DHT22;13092;51.996;4.458;2022-09-24T09:56:26;16.00;99.90
25112;DHT22;13092;51.996;4.458;2022-09-24T09:59:05;16.00;99.90
25112;DHT22;13092;51.996;4.458;2022-09-24T10:01:40;16.00;99.90
25112;DHT22;13092;51.996;4.458;2022-09-24T10:04:27;16.00;99.90
25112;DHT22;13092;51.996;4.458;2022-09-24T10:07:05;16.00;99.90
25112;DHT22;13092;51.996;4.458;2022-09-24T10:09:34;16.00;99.90
25112;DHT22;13092;51.996;4.458;2022-09-24T10:12:08;16.00;99.90
25112;DHT22;13092;51.996;4.458;2022-09-24T10:14:43;16.00;99.90
25112;DHT22;13092;51.996;4.458;2022-09-24T10:17:17;16.00;99.90
25112;DHT22;13092;51.996;4.458;2022-09-24T10:19:46;16.00;99.90
25112;DHT22;13092;51.996;4.458;2022-09-24T10:22:20;16.10;99.90
25112;DHT22;13092;51.996;4.458;2022-09-24T10:24:52;16.00;99.90
25112;DHT22;13092;51.996;4.458;2022-09-24T10:27:30;16.00;99.90
25112;DHT22;13092;51.996;4.458;2022-09-24T10:30:00;16.00;99.90
25112;DHT22;13092;51.996;4.458;2022-09-24T10:32:55;16.00;99.90
25112;DHT22;13092;51.996;4.458;2022-09-24T10:35:29;15.90;99.90
25112;DHT22;13092;51.996;4.458;2022-09-24T10:38:00;15.90;99.90
25112;DHT22;13092;51.996;4.458;2022-09-24T10:40:36;16.00;99.90
25112;DHT22;13092;51.996;4.458;2022-09-24T10:43:06;16.00;99.90
25112;DHT22;13092;51.996;4.458;2022-09-24T10:45:54;16.00;99.90
25112;DHT22;13092;51.996;4.458;2022-09-24T10:48:33;16.10;99.90
25112;DHT22;13092;51.996;4.458;2022-09-24T10:51:22;16.20;99.90
25112;DHT22;13092;51.996;4.458;2022-09-24T10:54:08;16.10;99.90
25112;DHT22;13092;51.996;4.458;2022-09-24T10:56:44;16.10;99.90
25112;DHT22;13092;51.996;4.458;2022-09-24T10:59:36;16.10;99.90
25112;DHT22;13092;51.996;4.458;2022-09-24T11:02:41;16.10;99.90
25112;DHT22;13092;51.996;4.458;2022-09-24T11:05:16;16.20;99.90
25112;DHT22;13092;51.996;4.458;2022-09-24T11:08:00;16.30;99.90
25112;DHT22;13092;51.996;4.458;2022-09-24T11:10:49;16.30;99.90
25112;DHT22;13092;51.996;4.458;2022-09-24T11:13:25;16.40;99.90
25112;DHT22;13092;51.996;4.458;2022-09-24T11:16:14;16.40;99.90
25112;DHT22;13092;51.996;4.458;2022-09-24T11:18:55;16.50;99.90
25112;DHT22;13092;51.996;4.458;2022-09-24T11:21:51;16.50;99.90
25112;DHT22;13092;51.996;4.458;2022-09-24T11:24:40;16.60;99.90
25112;DHT22;13092;51.996;4.458;2022-09-24T11:27:28;16.50;99.90
25112;DHT22;13092;51.996;4.458;2022-09-24T11:30:07;16.50;99.90
25112;DHT22;13092;51.996;4.458;2022-09-24T11:32:50;16.50;99.90
25112;DHT22;13092;51.996;4.458;2022-09-24T11:35:33;16.50;99.90
25112;DHT22;13092;51.996;4.458;2022-09-24T11:38:14;16.50;99.90
25112;DHT22;13092;51.996;4.458;2022-09-24T11:41:06;16.50;99.90
25112;DHT22;13092;51.996;4.458;2022-09-24T11:43:58;16.50;99.90
25112;DHT22;13092;51.996;4.458;2022-09-24T11:46:44;16.60;99.90
25112;DHT22;13092;51.996;4.458;2022-09-24T11:49:43;16.70;99.90
25112;DHT22;13092;51.996;4.458;2022-09-24T11:52:23;16.70;99.90
25112;DHT22;13092;51.996;4.458;2022-09-24T11:55:02;16.80;99.90
25112;DHT22;13092;51.996;4.458;2022-09-24T11:57:33;16.70;99.90
25112;DHT22;13092;51.996;4.458;2022-09-24T12:00:15;16.70;99.90
25112;DHT22;13092;51.996;4.458;2022-09-24T12:02:50;16.80;99.90
25112;DHT22;13092;51.996;4.458;2022-09-24T12:05:32;16.80;99.90
25112;DHT22;13092;51.996;4.458;2022-09-24T12:08:08;16.80;99.90
25112;DHT22;13092;51.996;4.458;2022-09-24T12:10:43;16.80;99.90
25112;DHT22;13092;51.996;4.458;2022-09-24T12:13:17;16.80;99.90
25112;DHT22;13092;51.996;4.458;2022-09-24T12:15:50;16.80;99.90
25112;DHT22;13092;51.996;4.458;2022-09-24T12:18:26;16.80;99.90
25112;DHT22;13092;51.996;4.458;2022-09-24T12:20:58;16.90;99.90
25112;DHT22;13092;51.996;4.458;2022-09-24T12:23:29;16.90;99.90
25112;DHT22;13092;51.996;4.458;2022-09-24T12:26:02;16.90;99.90
25112;DHT22;13092;51.996;4.458;2022-09-24T12:28:37;17.00;99.90
25112;DHT22;13092;51.996;4.458;2022-09-24T12:31:31;17.00;99.90
25112;DHT22;13092;51.996;4.458;2022-09-24T12:34:25;16.90;99.90
25112;DHT22;13092;51.996;4.458;2022-09-24T12:37:01;16.90;99.90
25112;DHT22;13092;51.996;4.458;2022-09-24T12:39:36;16.80;99.90
25112;DHT22;13092;51.996;4.458;2022-09-24T12:42:09;16.70;99.90
25112;DHT22;13092;51.996;4.458;2022-09-24T12:44:41;16.70;99.90
25112;DHT22;13092;51.996;4.458;2022-09-24T12:47:17;16.70;99.90
25112;DHT22;13092;51.996;4.458;2022-09-24T12:49:53;16.80;99.90
25112;DHT22;13092;51.996;4.458;2022-09-24T12:52:24;16.80;99.90
25112;DHT22;13092;51.996;4.458;2022-09-24T12:54:57;16.90;99.90
25112;DHT22;13092;51.996;4.458;2022-09-24T12:57:33;17.00;99.90
25112;DHT22;13092;51.996;4.458;2022-09-24T13:00:31;17.20;99.90
25112;DHT22;13092;51.996;4.458;2022-09-24T13:05:52;17.40;99.90
25112;DHT22;13092;51.996;4.458;2022-09-24T13:08:50;17.40;99.90
25112;DHT22;13092;51.996;4.458;2022-09-24T13:11:31;17.20;99.90
25112;DHT22;13092;51.996;4.458;2022-09-24T13:14:23;17.30;99.90
25112;DHT22;13092;51.996;4.458;2022-09-24T13:17:12;17.40;99.90
25112;DHT22;13092;51.996;4.458;2022-09-24T13:19:45;17.50;99.90
25112;DHT22;13092;51.996;4.458;2022-09-24T13:22:59;17.50;99.90
25112;DHT22;13092;51.996;4.458;2022-09-24T13:26:03;17.50;99.90
25112;DHT22;13092;51.996;4.458;2022-09-24T13:28:56;17.50;99.90
25112;DHT22;13092;51.996;4.458;2022-09-24T13:32:03;17.50;99.90
25112;DHT22;13092;51.996;4.458;2022-09-24T13:35:46;17.60;99.90
25112;DHT22;13092;51.996;4.458;2022-09-24T13:38:48;17.50;99.90
25112;DHT22;13092;51.996;4.458;2022-09-24T13:41:31;17.70;99.90
25112;DHT22;13092;51.996;4.458;2022-09-24T13:44:24;17.70;99.90
25112;DHT22;13092;51.996;4.458;2022-09-24T13:47:00;17.70;99.90
25112;DHT22;13092;51.996;4.458;2022-09-24T13:49:36;17.70;99.90
25112;DHT22;13092;51.996;4.458;2022-09-24T13:52:21;17.70;99.90
25112;DHT22;13092;51.996;4.458;2022-09-24T13:54:55;17.70;99.90
25112;DHT22;13092;51.996;4.458;2022-09-24T13:57:28;17.60;99.90
25112;DHT22;13092;51.996;4.458;2022-09-24T14:00:12;17.70;99.90
25112;DHT22;13092;51.996;4.458;2022-09-24T14:02:55;17.80;99.90
25112;DHT22;13092;51.996;4.458;2022-09-24T14:05:25;17.70;99.90
25112;DHT22;13092;51.996;4.458;2022-09-24T14:07:57;17.70;99.90
25112;DHT22;13092;51.996;4.458;2022-09-24T14:10:28;17.80;99.90
25112;DHT22;13092;51.996;4.458;2022-09-24T14:13:15;17.80;99.90
25112;DHT22;13092;51.996;4.458;2022-09-24T14:15:56;17.70;99.90
25112;DHT22;13092;51.996;4.458;2022-09-24T14:18:28;17.70;99.90
25112;DHT22;13092;51.996;4.458;2022-09-24T14:21:03;17.70;99.90
25112;DHT22;13092;51.996;4.458;2022-09-24T14:23:37;17.70;99.90
25112;DHT22;13092;51.996;4.458;2022-09-24T14:26:06;17.70;99.90
25112;DHT22;13092;51.996;4.458;2022-09-24T14:28:37;17.70;99.90
25112;DHT22;13092;51.996;4.458;2022-09-24T14:31:07;17.80;99.90
25112;DHT22;13092;51.996;4.458;2022-09-24T14:33:38;17.70;99.90
25112;DHT22;13092;51.996;4.458;2022-09-24T14:36:09;17.70;99.90
25112;DHT22;13092;51.996;4.458;2022-09-24T14:38:50;17.70;99.90
25112;DHT22;13092;51.996;4.458;2022-09-24T14:41:22;17.70;99.90
25112;DHT22;13092;51.996;4.458;2022-09-24T14:43:57;17.70;99.90
25112;DHT22;13092;51.996;4.458;2022-09-24T14:46:31;17.70;99.90
25112;DHT22;13092;51.996;4.458;2022-09-24T14:49:17;17.70;99.90
25112;DHT22;13092;51.996;4.458;2022-09-24T14:51:55;17.80;99.90
25112;DHT22;13092;51.996;4.458;2022-09-24T14:54:30;17.80;99.90
25112;DHT22;13092;51.996;4.458;2022-09-24T14:57:10;17.80;99.90
25112;DHT22;13092;51.996;4.458;2022-09-24T15:00:16;18.00;99.90
25112;DHT22;13092;51.996;4.458;2022-09-24T15:02:40;18.00;99.90
25112;DHT22;13092;51.996;4.458;2022-09-24T15:05:10;18.00;99.90
25112;DHT22;13092;51.996;4.458;2022-09-24T15:07:38;18.00;99.90
25112;DHT22;13092;51.996;4.458;2022-09-24T15:10:18;18.00;99.90
25112;DHT22;13092;51.996;4.458;2022-09-24T15:12:48;18.00;99.90
25112;DHT22;13092;51.996;4.458;2022-09-24T15:15:29;18.20;99.90
25112;DHT22;13092;51.996;4.458;2022-09-24T15:17:58;18.30;99.90
25112;DHT22;13092;51.996;4.458;2022-09-24T15:20:31;18.30;99.90
25112;DHT22;13092;51.996;4.458;2022-09-24T15:22:59;18.30;99.90
25112;DHT22;13092;51.996;4.458;2022-09-24T15:25:28;18.40;99.90
25112;DHT22;13092;51.996;4.458;2022-09-24T15:27:56;18.40;99.90
25112;DHT22;13092;51.996;4.458;2022-09-24T15:30:46;18.50;99.90
25112;DHT22;13092;51.996;4.458;2022-09-24T15:33:24;18.50;99.90
25112;DHT22;13092;51.996;4.458;2022-09-24T15:36:02;18.60;99.90
25112;DHT22;13092;51.996;4.458;2022-09-24T15:38:40;18.60;99.90
25112;DHT22;13092;51.996;4.458;2022-09-24T15:41:09;18.60;99.90
25112;DHT22;13092;51.996;4.458;2022-09-24T15:43:41;18.60;99.90
25112;DHT22;13092;51.996;4.458;2022-09-24T15:46:10;18.60;99.90
25112;DHT22;13092;51.996;4.458;2022-09-24T15:48:38;18.80;99.90
25112;DHT22;13092;51.996;4.458;2022-09-24T15:51:09;19.00;99.90
25112;DHT22;13092;51.996;4.458;2022-09-24T15:53:41;19.20;99.90
25112;DHT22;13092;51.996;4.458;2022-09-24T15:56:10;19.30;99.90
25112;DHT22;13092;51.996;4.458;2022-09-24T15:58:38;19.20;99.90
25112;DHT22;13092;51.996;4.458;2022-09-24T16:01:09;18.90;99.90
25112;DHT22;13092;51.996;4.458;2022-09-24T16:03:41;18.80;99.90
25112;DHT22;13092;51.996;4.458;2022-09-24T16:06:12;18.70;99.90
25112;DHT22;13092;51.996;4.458;2022-09-24T16:08:41;18.80;99.90
25112;DHT22;13092;51.996;4.458;2022-09-24T16:11:09;18.80;99.90
25112;DHT22;13092;51.996;4.458;2022-09-24T16:13:40;18.80;99.90
25112;DHT22;13092;51.996;4.458;2022-09-24T16:16:09;18.80;99.90
25112;DHT22;13092;51.996;4.458;2022-09-24T16:18:38;18.70;99.90